Terminal Aerodrome Forecast
Issued by NWS Charleston, WV

Current Version | Previous Version | Graphics & Text | Print | Product List | Glossary Off
Versions: 1 2 3 4 5 6 7 8 9 10 11 12 13 14 15 16 17 18 19 20 21

000
FTUS41 KRLX 251732
TAFCRW
TAF
KCRW 251732Z 2518/2618 24007KT P6SM SCT060
     FM252300 VRB03KT P6SM SCT060 BKN080
     FM260300 VRB03KT P6SM BKN050
     FM261700 20007KT P6SM BKN040=

USA.gov is the U.S. government's official web portal to all federal, state and local government web resources and services.